Elmer, Pennsylvania
Current Conditions -  °F | °C
As of 12:55 PM on Thursday 30 Oct 2014 (Local Time) from KN38 Reporting Station
Overcast Overcast  
Wind Chill:   Ceiling: 2800
Heat Index:   Visibility: 10mi
Dew Point:   Wind: 12mph
Humidity: 70%   Direction: 340°NNW
Pressure: 30.05"   Gusts: NA
Location:  41.9252°N, 77.5198°W
Report Text: KN38 301655Z AUTO 34010KT 10SM OVC028 06/01 A3005 RMK AO2
Loading
Personal Weather Stations






























Interactive Weather Map
Tropical Storm Tracking
New forecast layout! Learn more

10-Day Weather Forecast

Advertisements
Track Severe Weather on mobile